Aérodrome :
LOGIN :

S'inscrire | Disclaimer

   EN    FR    IT 

 










Légende :    VFR   VFR Marginal   IFR   IFR Intensif   IFR Très Intensif
Visi : 
Plafond : 
>= 8 km
>= 3000ft
5 à 8 km
1000 à 3000 ft
1500m à 5 km
500 à 1000 ft
800 à 1500m
200 à 500 ft
< 800m
< 200 ft
Symboles :   Orages  Brouillard  Fortes neiges  Fortes précipitations  Vent > 20 kt
SIGMETs :   Divers  Orages  Givrage  Turbulence  Onde Orograph.  Cendres Volcan.






- Altitude de l'aérodrome : 616 ft
- Code IATA : PUF


LFBP - Pau

DERNIER METAR :
  • 271630Z AUTO 07003KT CAVOK 13/09 Q1010 NOSIG

METARs EXPIRÉS :
  • 271600Z AUTO 08004KT 050V110 CAVOK 14/09 Q1010 NOSIG
  • 271530Z AUTO VRB02KT CAVOK 15/09 Q1010 NOSIG
  • 271500Z AUTO 31003KT CAVOK 16/08 Q1010 NOSIG
  • 271430Z AUTO 30004KT CAVOK 16/08 Q1010 NOSIG
  • 271400Z AUTO 29003KT CAVOK 16/08 Q1010 NOSIG

TAF TAF LFBP
Valide du 27 à 12h jusqu'au 28 à 12h UTC


271100Z 2712/2812 VRB05KT 9999 SCT060
PROB30
TEMPO 2722/2807 0500 FG VV///



MET'MAP, la Météo Aéronautique d'un coup d'oeil ! - Copyright ORBIFLY Décembre 2007 - Disclaimer

ORBIFLY MET'MAP TEAM :

Programmation & Développement : Alexandra Zaïnal
Sur une idée originale de : Baudouin d'Aumeries
Assistance à la programmation : Marc-Olivier Méhu
Soutien technique & logistique : Manuel Goepfert

Contact : metmap@orbifly.com




SOURCES & CREDITS :

   NOAA